sensor_id;sensor_type;location;lat;lon;timestamp;P1;durP1;ratioP1;P2;durP2;ratioP2
83054;SDS011;72877;52.130;5.582;2023-12-22T00:02:16;18.70;;;3.20;;
83054;SDS011;72877;52.130;5.582;2023-12-22T00:04:41;17.88;;;3.25;;
83054;SDS011;72877;52.130;5.582;2023-12-22T00:07:06;13.57;;;3.25;;
83054;SDS011;72877;52.130;5.582;2023-12-22T00:09:32;16.17;;;3.28;;
83054;SDS011;72877;52.130;5.582;2023-12-22T00:11:57;14.70;;;3.30;;
83054;SDS011;72877;52.130;5.582;2023-12-22T00:14:22;13.60;;;3.17;;
83054;SDS011;72877;52.130;5.582;2023-12-22T00:16:47;14.27;;;2.55;;
83054;SDS011;72877;52.130;5.582;2023-12-22T00:19:12;9.80;;;2.03;;
83054;SDS011;72877;52.130;5.582;2023-12-22T00:21:38;9.43;;;1.92;;
83054;SDS011;72877;52.130;5.582;2023-12-22T00:24:03;7.15;;;1.60;;
83054;SDS011;72877;52.130;5.582;2023-12-22T00:26:29;9.38;;;1.48;;
83054;SDS011;72877;52.130;5.582;2023-12-22T00:28:54;8.40;;;1.92;;
83054;SDS011;72877;52.130;5.582;2023-12-22T00:31:19;8.70;;;2.30;;
83054;SDS011;72877;52.130;5.582;2023-12-22T00:33:44;8.40;;;1.85;;
83054;SDS011;72877;52.130;5.582;2023-12-22T00:36:10;7.40;;;2.35;;
83054;SDS011;72877;52.130;5.582;2023-12-22T00:38:35;6.72;;;1.92;;
83054;SDS011;72877;52.130;5.582;2023-12-22T00:41:00;14.65;;;2.20;;
83054;SDS011;72877;52.130;5.582;2023-12-22T00:43:25;11.18;;;2.15;;
83054;SDS011;72877;52.130;5.582;2023-12-22T00:45:51;12.55;;;2.08;;
83054;SDS011;72877;52.130;5.582;2023-12-22T00:48:16;13.32;;;2.75;;
83054;SDS011;72877;52.130;5.582;2023-12-22T00:50:41;6.40;;;2.25;;
83054;SDS011;72877;52.130;5.582;2023-12-22T00:53:06;9.23;;;1.77;;
83054;SDS011;72877;52.130;5.582;2023-12-22T00:55:31;8.30;;;1.70;;
83054;SDS011;72877;52.130;5.582;2023-12-22T00:57:57;10.77;;;2.03;;
83054;SDS011;72877;52.130;5.582;2023-12-22T01:00:22;8.65;;;2.22;;
83054;SDS011;72877;52.130;5.582;2023-12-22T01:02:47;8.05;;;2.00;;
83054;SDS011;72877;52.130;5.582;2023-12-22T01:05:12;10.98;;;2.05;;
83054;SDS011;72877;52.130;5.582;2023-12-22T01:07:38;11.25;;;2.33;;
83054;SDS011;72877;52.130;5.582;2023-12-22T01:10:03;9.40;;;2.30;;
83054;SDS011;72877;52.130;5.582;2023-12-22T01:12:29;10.18;;;2.70;;
83054;SDS011;72877;52.130;5.582;2023-12-22T01:14:55;11.70;;;2.50;;
83054;SDS011;72877;52.130;5.582;2023-12-22T01:17:20;12.32;;;3.92;;
83054;SDS011;72877;52.130;5.582;2023-12-22T01:19:45;11.50;;;2.05;;
83054;SDS011;72877;52.130;5.582;2023-12-22T01:22:10;10.05;;;2.10;;
83054;SDS011;72877;52.130;5.582;2023-12-22T01:24:36;9.43;;;2.65;;
83054;SDS011;72877;52.130;5.582;2023-12-22T01:27:04;4.80;;;1.77;;
83054;SDS011;72877;52.130;5.582;2023-12-22T01:29:29;10.70;;;2.10;;
83054;SDS011;72877;52.130;5.582;2023-12-22T01:31:55;9.40;;;1.70;;
83054;SDS011;72877;52.130;5.582;2023-12-22T01:34:20;8.80;;;2.58;;
83054;SDS011;72877;52.130;5.582;2023-12-22T01:36:45;13.75;;;2.40;;
83054;SDS011;72877;52.130;5.582;2023-12-22T01:39:10;9.63;;;2.63;;
83054;SDS011;72877;52.130;5.582;2023-12-22T01:41:35;9.55;;;1.63;;
83054;SDS011;72877;52.130;5.582;2023-12-22T01:44:01;9.70;;;2.67;;
83054;SDS011;72877;52.130;5.582;2023-12-22T01:46:26;11.35;;;2.00;;
83054;SDS011;72877;52.130;5.582;2023-12-22T01:48:51;11.02;;;2.65;;
83054;SDS011;72877;52.130;5.582;2023-12-22T01:51:16;8.73;;;2.50;;
83054;SDS011;72877;52.130;5.582;2023-12-22T01:53:42;8.00;;;1.90;;
83054;SDS011;72877;52.130;5.582;2023-12-22T01:56:07;9.20;;;2.55;;
83054;SDS011;72877;52.130;5.582;2023-12-22T01:58:33;13.55;;;2.58;;
83054;SDS011;72877;52.130;5.582;2023-12-22T02:01:00;9.73;;;2.55;;
83054;SDS011;72877;52.130;5.582;2023-12-22T02:03:26;10.82;;;2.83;;
83054;SDS011;72877;52.130;5.582;2023-12-22T02:05:52;14.45;;;2.70;;
83054;SDS011;72877;52.130;5.582;2023-12-22T02:08:17;8.82;;;2.78;;
83054;SDS011;72877;52.130;5.582;2023-12-22T02:10:43;12.60;;;2.55;;
83054;SDS011;72877;52.130;5.582;2023-12-22T02:13:08;9.90;;;2.75;;
83054;SDS011;72877;52.130;5.582;2023-12-22T02:15:34;13.73;;;2.53;;
83054;SDS011;72877;52.130;5.582;2023-12-22T02:18:04;15.90;;;2.78;;
83054;SDS011;72877;52.130;5.582;2023-12-22T02:20:32;17.73;;;3.42;;
83054;SDS011;72877;52.130;5.582;2023-12-22T02:22:57;9.68;;;3.05;;
83054;SDS011;72877;52.130;5.582;2023-12-22T02:25:22;12.50;;;2.67;;
83054;SDS011;72877;52.130;5.582;2023-12-22T02:27:48;15.05;;;3.10;;
83054;SDS011;72877;52.130;5.582;2023-12-22T02:30:14;11.48;;;2.58;;
83054;SDS011;72877;52.130;5.582;2023-12-22T02:32:46;12.90;;;3.22;;
83054;SDS011;72877;52.130;5.582;2023-12-22T02:35:23;22.13;;;2.83;;
83054;SDS011;72877;52.130;5.582;2023-12-22T02:37:49;13.90;;;2.42;;
83054;SDS011;72877;52.130;5.582;2023-12-22T02:40:14;13.38;;;2.97;;
83054;SDS011;72877;52.130;5.582;2023-12-22T02:42:40;10.88;;;2.30;;
83054;SDS011;72877;52.130;5.582;2023-12-22T02:45:06;22.98;;;3.65;;
83054;SDS011;72877;52.130;5.582;2023-12-22T02:47:37;16.15;;;3.22;;
83054;SDS011;72877;52.130;5.582;2023-12-22T02:50:02;25.27;;;3.65;;
83054;SDS011;72877;52.130;5.582;2023-12-22T02:52:28;16.35;;;3.60;;
83054;SDS011;72877;52.130;5.582;2023-12-22T02:54:53;20.15;;;5.22;;
83054;SDS011;72877;52.130;5.582;2023-12-22T02:57:18;22.92;;;3.88;;
83054;SDS011;72877;52.130;5.582;2023-12-22T02:59:43;18.10;;;3.45;;
83054;SDS011;72877;52.130;5.582;2023-12-22T03:02:09;19.15;;;4.47;;
83054;SDS011;72877;52.130;5.582;2023-12-22T03:04:34;22.63;;;3.47;;
83054;SDS011;72877;52.130;5.582;2023-12-22T03:06:59;21.45;;;3.95;;
83054;SDS011;72877;52.130;5.582;2023-12-22T03:09:24;10.48;;;2.55;;
83054;SDS011;72877;52.130;5.582;2023-12-22T03:11:49;11.50;;;2.65;;
83054;SDS011;72877;52.130;5.582;2023-12-22T03:14:16;10.77;;;2.60;;
83054;SDS011;72877;52.130;5.582;2023-12-22T03:16:42;8.50;;;2.10;;
83054;SDS011;72877;52.130;5.582;2023-12-22T03:19:07;8.00;;;1.48;;
83054;SDS011;72877;52.130;5.582;2023-12-22T03:21:32;3.80;;;1.52;;
83054;SDS011;72877;52.130;5.582;2023-12-22T03:23:57;10.20;;;2.30;;
83054;SDS011;72877;52.130;5.582;2023-12-22T03:26:23;8.63;;;1.90;;
83054;SDS011;72877;52.130;5.582;2023-12-22T03:28:48;7.10;;;2.42;;
83054;SDS011;72877;52.130;5.582;2023-12-22T03:31:13;7.13;;;1.65;;
83054;SDS011;72877;52.130;5.582;2023-12-22T03:33:38;8.57;;;1.50;;
83054;SDS011;72877;52.130;5.582;2023-12-22T03:36:03;6.40;;;1.40;;
83054;SDS011;72877;52.130;5.582;2023-12-22T03:38:29;9.13;;;1.70;;
83054;SDS011;72877;52.130;5.582;2023-12-22T03:40:54;7.88;;;1.80;;
83054;SDS011;72877;52.130;5.582;2023-12-22T03:43:19;3.88;;;1.80;;
83054;SDS011;72877;52.130;5.582;2023-12-22T03:45:44;7.63;;;1.75;;
83054;SDS011;72877;52.130;5.582;2023-12-22T03:48:09;6.97;;;2.42;;
83054;SDS011;72877;52.130;5.582;2023-12-22T03:50:35;6.20;;;1.30;;
83054;SDS011;72877;52.130;5.582;2023-12-22T03:53:00;10.43;;;1.70;;
83054;SDS011;72877;52.130;5.582;2023-12-22T03:55:25;10.15;;;2.05;;
83054;SDS011;72877;52.130;5.582;2023-12-22T03:57:51;11.25;;;2.22;;
83054;SDS011;72877;52.130;5.582;2023-12-22T04:00:16;7.75;;;2.10;;
83054;SDS011;72877;52.130;5.582;2023-12-22T04:02:41;9.40;;;1.77;;
83054;SDS011;72877;52.130;5.582;2023-12-22T04:05:07;7.10;;;1.70;;
83054;SDS011;72877;52.130;5.582;2023-12-22T04:07:32;7.95;;;1.52;;
83054;SDS011;72877;52.130;5.582;2023-12-22T04:09:57;10.10;;;1.77;;
83054;SDS011;72877;52.130;5.582;2023-12-22T04:12:22;5.95;;;1.60;;
83054;SDS011;72877;52.130;5.582;2023-12-22T04:14:48;6.07;;;1.63;;
83054;SDS011;72877;52.130;5.582;2023-12-22T04:17:13;11.15;;;2.03;;
83054;SDS011;72877;52.130;5.582;2023-12-22T04:19:38;11.63;;;2.10;;
83054;SDS011;72877;52.130;5.582;2023-12-22T04:22:03;9.68;;;1.73;;
83054;SDS011;72877;52.130;5.582;2023-12-22T04:24:29;13.18;;;2.90;;
83054;SDS011;72877;52.130;5.582;2023-12-22T04:26:54;21.85;;;3.15;;
83054;SDS011;72877;52.130;5.582;2023-12-22T04:29:19;13.35;;;2.70;;
83054;SDS011;72877;52.130;5.582;2023-12-22T04:31:44;16.67;;;2.92;;
83054;SDS011;72877;52.130;5.582;2023-12-22T04:34:11;13.77;;;3.05;;
83054;SDS011;72877;52.130;5.582;2023-12-22T04:36:36;10.75;;;3.75;;
83054;SDS011;72877;52.130;5.582;2023-12-22T04:39:01;11.90;;;2.65;;
83054;SDS011;72877;52.130;5.582;2023-12-22T04:41:27;15.52;;;3.28;;
83054;SDS011;72877;52.130;5.582;2023-12-22T04:43:52;14.50;;;3.53;;
83054;SDS011;72877;52.130;5.582;2023-12-22T04:46:17;12.33;;;3.07;;
83054;SDS011;72877;52.130;5.582;2023-12-22T04:48:42;18.08;;;2.67;;
83054;SDS011;72877;52.130;5.582;2023-12-22T04:51:07;16.88;;;4.18;;
83054;SDS011;72877;52.130;5.582;2023-12-22T04:53:32;21.43;;;3.70;;
83054;SDS011;72877;52.130;5.582;2023-12-22T04:55:58;19.05;;;3.20;;
83054;SDS011;72877;52.130;5.582;2023-12-22T04:58:23;14.65;;;3.47;;
83054;SDS011;72877;52.130;5.582;2023-12-22T05:00:49;20.70;;;3.90;;
83054;SDS011;72877;52.130;5.582;2023-12-22T05:03:14;12.43;;;2.80;;
83054;SDS011;72877;52.130;5.582;2023-12-22T05:05:39;18.63;;;3.65;;
83054;SDS011;72877;52.130;5.582;2023-12-22T05:08:05;18.20;;;3.13;;
83054;SDS011;72877;52.130;5.582;2023-12-22T05:10:30;12.40;;;2.60;;
83054;SDS011;72877;52.130;5.582;2023-12-22T05:12:55;15.35;;;2.83;;
83054;SDS011;72877;52.130;5.582;2023-12-22T05:15:21;25.25;;;3.97;;
83054;SDS011;72877;52.130;5.582;2023-12-22T05:17:46;18.75;;;3.28;;
83054;SDS011;72877;52.130;5.582;2023-12-22T05:20:11;18.10;;;2.63;;
83054;SDS011;72877;52.130;5.582;2023-12-22T05:22:36;17.17;;;3.90;;
83054;SDS011;72877;52.130;5.582;2023-12-22T05:25:02;16.75;;;3.47;;
83054;SDS011;72877;52.130;5.582;2023-12-22T05:27:27;22.05;;;4.15;;
83054;SDS011;72877;52.130;5.582;2023-12-22T05:29:52;17.02;;;3.50;;
83054;SDS011;72877;52.130;5.582;2023-12-22T05:32:18;12.63;;;2.88;;
83054;SDS011;72877;52.130;5.582;2023-12-22T05:34:43;18.73;;;3.78;;
83054;SDS011;72877;52.130;5.582;2023-12-22T05:37:08;16.58;;;3.08;;
83054;SDS011;72877;52.130;5.582;2023-12-22T05:39:33;14.48;;;3.28;;
83054;SDS011;72877;52.130;5.582;2023-12-22T05:41:58;17.33;;;3.45;;
83054;SDS011;72877;52.130;5.582;2023-12-22T05:44:24;16.80;;;2.95;;
83054;SDS011;72877;52.130;5.582;2023-12-22T05:46:49;18.30;;;3.47;;
83054;SDS011;72877;52.130;5.582;2023-12-22T05:49:15;24.30;;;3.17;;
83054;SDS011;72877;52.130;5.582;2023-12-22T05:51:40;22.42;;;3.90;;
83054;SDS011;72877;52.130;5.582;2023-12-22T05:54:08;18.48;;;3.55;;
83054;SDS011;72877;52.130;5.582;2023-12-22T05:56:34;18.83;;;5.00;;
83054;SDS011;72877;52.130;5.582;2023-12-22T05:58:59;18.70;;;3.67;;
83054;SDS011;72877;52.130;5.582;2023-12-22T06:01:24;25.75;;;3.95;;
83054;SDS011;72877;52.130;5.582;2023-12-22T06:03:50;13.43;;;3.13;;
83054;SDS011;72877;52.130;5.582;2023-12-22T06:06:15;17.70;;;3.22;;
83054;SDS011;72877;52.130;5.582;2023-12-22T06:08:40;13.77;;;3.55;;
83054;SDS011;72877;52.130;5.582;2023-12-22T06:11:05;15.07;;;3.58;;
83054;SDS011;72877;52.130;5.582;2023-12-22T06:13:31;16.27;;;3.22;;
83054;SDS011;72877;52.130;5.582;2023-12-22T06:15:56;17.20;;;3.13;;
83054;SDS011;72877;52.130;5.582;2023-12-22T06:18:21;22.35;;;2.95;;
83054;SDS011;72877;52.130;5.582;2023-12-22T06:20:47;19.08;;;3.70;;
83054;SDS011;72877;52.130;5.582;2023-12-22T06:23:12;17.77;;;3.80;;
83054;SDS011;72877;52.130;5.582;2023-12-22T06:25:37;17.25;;;3.10;;
83054;SDS011;72877;52.130;5.582;2023-12-22T06:28:02;18.88;;;4.50;;
83054;SDS011;72877;52.130;5.582;2023-12-22T06:30:28;26.15;;;3.67;;
83054;SDS011;72877;52.130;5.582;2023-12-22T06:32:54;15.13;;;3.25;;
83054;SDS011;72877;52.130;5.582;2023-12-22T06:35:19;24.13;;;3.38;;
83054;SDS011;72877;52.130;5.582;2023-12-22T06:37:48;17.05;;;3.47;;
83054;SDS011;72877;52.130;5.582;2023-12-22T06:40:13;16.83;;;4.57;;
83054;SDS011;72877;52.130;5.582;2023-12-22T06:42:39;12.13;;;3.63;;
83054;SDS011;72877;52.130;5.582;2023-12-22T06:45:04;19.42;;;4.00;;
83054;SDS011;72877;52.130;5.582;2023-12-22T06:47:29;20.40;;;3.63;;
83054;SDS011;72877;52.130;5.582;2023-12-22T06:49:54;18.38;;;3.72;;
83054;SDS011;72877;52.130;5.582;2023-12-22T06:52:20;25.83;;;4.55;;
83054;SDS011;72877;52.130;5.582;2023-12-22T06:54:45;16.50;;;3.55;;
83054;SDS011;72877;52.130;5.582;2023-12-22T06:57:10;19.40;;;3.92;;
83054;SDS011;72877;52.130;5.582;2023-12-22T06:59:36;20.42;;;4.15;;
83054;SDS011;72877;52.130;5.582;2023-12-22T07:02:01;25.80;;;4.35;;
83054;SDS011;72877;52.130;5.582;2023-12-22T07:04:26;17.38;;;4.75;;
83054;SDS011;72877;52.130;5.582;2023-12-22T07:06:51;23.77;;;4.40;;
83054;SDS011;72877;52.130;5.582;2023-12-22T07:11:48;20.73;;;4.03;;
83054;SDS011;72877;52.130;5.582;2023-12-22T07:14:15;20.90;;;4.68;;
83054;SDS011;72877;52.130;5.582;2023-12-22T07:16:40;28.13;;;5.63;;
83054;SDS011;72877;52.130;5.582;2023-12-22T07:19:07;16.88;;;4.65;;
83054;SDS011;72877;52.130;5.582;2023-12-22T07:21:32;24.05;;;5.22;;
83054;SDS011;72877;52.130;5.582;2023-12-22T07:23:57;21.15;;;4.57;;
83054;SDS011;72877;52.130;5.582;2023-12-22T07:26:25;27.08;;;4.50;;
83054;SDS011;72877;52.130;5.582;2023-12-22T07:28:51;28.58;;;4.88;;
83054;SDS011;72877;52.130;5.582;2023-12-22T07:31:17;21.38;;;5.45;;
83054;SDS011;72877;52.130;5.582;2023-12-22T07:33:42;24.95;;;5.28;;
83054;SDS011;72877;52.130;5.582;2023-12-22T07:36:08;28.05;;;4.90;;
83054;SDS011;72877;52.130;5.582;2023-12-22T07:38:33;28.38;;;5.63;;
83054;SDS011;72877;52.130;5.582;2023-12-22T07:40:58;29.17;;;5.70;;
83054;SDS011;72877;52.130;5.582;2023-12-22T07:43:24;25.70;;;5.90;;
83054;SDS011;72877;52.130;5.582;2023-12-22T07:45:49;28.77;;;5.55;;
83054;SDS011;72877;52.130;5.582;2023-12-22T07:48:15;26.73;;;5.30;;
83054;SDS011;72877;52.130;5.582;2023-12-22T07:50:41;25.13;;;5.32;;
83054;SDS011;72877;52.130;5.582;2023-12-22T07:53:07;33.85;;;6.65;;
83054;SDS011;72877;52.130;5.582;2023-12-22T07:55:33;21.27;;;5.68;;
83054;SDS011;72877;52.130;5.582;2023-12-22T07:57:58;31.45;;;5.95;;
83054;SDS011;72877;52.130;5.582;2023-12-22T08:00:23;30.17;;;5.33;;
83054;SDS011;72877;52.130;5.582;2023-12-22T08:02:48;13.35;;;4.22;;
83054;SDS011;72877;52.130;5.582;2023-12-22T08:05:14;19.15;;;3.88;;
83054;SDS011;72877;52.130;5.582;2023-12-22T08:07:39;17.20;;;3.25;;
83054;SDS011;72877;52.130;5.582;2023-12-22T08:10:05;20.42;;;3.50;;
83054;SDS011;72877;52.130;5.582;2023-12-22T08:12:31;24.38;;;4.25;;
83054;SDS011;72877;52.130;5.582;2023-12-22T08:14:57;30.45;;;4.50;;
83054;SDS011;72877;52.130;5.582;2023-12-22T08:17:22;18.95;;;4.32;;
83054;SDS011;72877;52.130;5.582;2023-12-22T08:19:48;22.50;;;4.33;;
83054;SDS011;72877;52.130;5.582;2023-12-22T08:22:13;19.58;;;3.85;;
83054;SDS011;72877;52.130;5.582;2023-12-22T08:24:38;21.50;;;4.57;;
83054;SDS011;72877;52.130;5.582;2023-12-22T08:27:04;24.05;;;5.25;;
83054;SDS011;72877;52.130;5.582;2023-12-22T08:29:29;34.92;;;6.97;;
83054;SDS011;72877;52.130;5.582;2023-12-22T08:31:55;24.73;;;5.45;;
83054;SDS011;72877;52.130;5.582;2023-12-22T08:34:20;30.33;;;5.07;;
83054;SDS011;72877;52.130;5.582;2023-12-22T08:36:45;26.92;;;5.03;;
83054;SDS011;72877;52.130;5.582;2023-12-22T08:39:10;27.27;;;5.32;;
83054;SDS011;72877;52.130;5.582;2023-12-22T08:41:36;31.35;;;7.57;;
83054;SDS011;72877;52.130;5.582;2023-12-22T08:44:05;32.67;;;5.97;;
83054;SDS011;72877;52.130;5.582;2023-12-22T08:46:31;33.13;;;5.88;;
83054;SDS011;72877;52.130;5.582;2023-12-22T08:48:56;24.52;;;4.57;;
83054;SDS011;72877;52.130;5.582;2023-12-22T08:51:22;18.05;;;4.82;;
83054;SDS011;72877;52.130;5.582;2023-12-22T08:53:47;17.30;;;4.00;;
83054;SDS011;72877;52.130;5.582;2023-12-22T08:56:12;21.07;;;4.90;;
83054;SDS011;72877;52.130;5.582;2023-12-22T08:58:37;15.95;;;2.95;;
83054;SDS011;72877;52.130;5.582;2023-12-22T09:01:02;20.15;;;3.78;;
83054;SDS011;72877;52.130;5.582;2023-12-22T09:03:28;21.38;;;4.18;;
83054;SDS011;72877;52.130;5.582;2023-12-22T09:05:53;20.27;;;3.85;;
83054;SDS011;72877;52.130;5.582;2023-12-22T09:08:19;15.70;;;3.35;;
83054;SDS011;72877;52.130;5.582;2023-12-22T09:10:44;19.73;;;4.45;;
83054;SDS011;72877;52.130;5.582;2023-12-22T09:13:10;20.05;;;3.55;;
83054;SDS011;72877;52.130;5.582;2023-12-22T09:15:36;14.75;;;3.70;;
83054;SDS011;72877;52.130;5.582;2023-12-22T09:18:01;14.98;;;3.15;;
83054;SDS011;72877;52.130;5.582;2023-12-22T09:20:27;18.33;;;4.40;;
83054;SDS011;72877;52.130;5.582;2023-12-22T09:22:55;21.23;;;3.95;;
83054;SDS011;72877;52.130;5.582;2023-12-22T09:25:20;20.98;;;3.55;;
83054;SDS011;72877;52.130;5.582;2023-12-22T09:27:45;20.65;;;4.20;;
83054;SDS011;72877;52.130;5.582;2023-12-22T09:30:10;23.27;;;4.80;;
83054;SDS011;72877;52.130;5.582;2023-12-22T09:32:36;18.45;;;4.10;;
83054;SDS011;72877;52.130;5.582;2023-12-22T09:35:01;11.98;;;3.05;;
83054;SDS011;72877;52.130;5.582;2023-12-22T09:37:26;15.52;;;2.70;;
83054;SDS011;72877;52.130;5.582;2023-12-22T09:39:51;7.13;;;2.65;;
83054;SDS011;72877;52.130;5.582;2023-12-22T09:42:17;12.85;;;2.97;;
83054;SDS011;72877;52.130;5.582;2023-12-22T09:44:42;7.47;;;1.30;;
83054;SDS011;72877;52.130;5.582;2023-12-22T09:47:07;3.75;;;1.38;;
83054;SDS011;72877;52.130;5.582;2023-12-22T09:49:34;6.90;;;1.30;;
83054;SDS011;72877;52.130;5.582;2023-12-22T09:52:01;4.25;;;1.10;;
83054;SDS011;72877;52.130;5.582;2023-12-22T09:54:28;10.23;;;2.80;;
83054;SDS011;72877;52.130;5.582;2023-12-22T09:56:53;3.03;;;1.10;;
83054;SDS011;72877;52.130;5.582;2023-12-22T09:59:18;3.95;;;0.98;;
83054;SDS011;72877;52.130;5.582;2023-12-22T10:01:44;5.55;;;1.17;;
83054;SDS011;72877;52.130;5.582;2023-12-22T10:04:12;4.22;;;1.30;;
83054;SDS011;72877;52.130;5.582;2023-12-22T10:06:38;6.60;;;1.17;;
83054;SDS011;72877;52.130;5.582;2023-12-22T10:09:03;5.38;;;2.22;;
83054;SDS011;72877;52.130;5.582;2023-12-22T10:11:30;6.40;;;1.80;;
83054;SDS011;72877;52.130;5.582;2023-12-22T10:13:56;5.50;;;2.00;;
83054;SDS011;72877;52.130;5.582;2023-12-22T10:16:22;10.90;;;2.03;;
83054;SDS011;72877;52.130;5.582;2023-12-22T10:18:47;10.50;;;2.15;;
83054;SDS011;72877;52.130;5.582;2023-12-22T10:21:13;11.73;;;2.50;;
83054;SDS011;72877;52.130;5.582;2023-12-22T10:23:38;10.73;;;3.22;;
83054;SDS011;72877;52.130;5.582;2023-12-22T10:26:03;21.00;;;2.90;;
83054;SDS011;72877;52.130;5.582;2023-12-22T10:28:29;10.30;;;2.42;;
83054;SDS011;72877;52.130;5.582;2023-12-22T10:30:54;11.07;;;2.95;;
83054;SDS011;72877;52.130;5.582;2023-12-22T10:33:21;10.18;;;2.63;;
83054;SDS011;72877;52.130;5.582;2023-12-22T10:35:46;16.98;;;3.10;;
83054;SDS011;72877;52.130;5.582;2023-12-22T10:38:11;7.93;;;2.13;;
83054;SDS011;72877;52.130;5.582;2023-12-22T10:40:37;8.70;;;2.42;;
83054;SDS011;72877;52.130;5.582;2023-12-22T10:43:02;11.15;;;2.30;;
83054;SDS011;72877;52.130;5.582;2023-12-22T10:45:28;8.35;;;1.85;;
83054;SDS011;72877;52.130;5.582;2023-12-22T10:47:54;6.43;;;2.35;;
83054;SDS011;72877;52.130;5.582;2023-12-22T10:50:19;8.30;;;2.47;;
83054;SDS011;72877;52.130;5.582;2023-12-22T10:52:51;8.10;;;2.25;;
83054;SDS011;72877;52.130;5.582;2023-12-22T10:55:16;19.27;;;3.45;;
83054;SDS011;72877;52.130;5.582;2023-12-22T10:57:43;10.48;;;2.15;;
83054;SDS011;72877;52.130;5.582;2023-12-22T11:00:09;10.70;;;1.85;;
83054;SDS011;72877;52.130;5.582;2023-12-22T11:02:35;17.98;;;2.70;;
83054;SDS011;72877;52.130;5.582;2023-12-22T11:05:02;13.43;;;2.55;;
83054;SDS011;72877;52.130;5.582;2023-12-22T11:07:27;8.95;;;2.20;;
83054;SDS011;72877;52.130;5.582;2023-12-22T11:09:53;11.15;;;3.00;;
83054;SDS011;72877;52.130;5.582;2023-12-22T11:12:20;13.60;;;3.03;;
83054;SDS011;72877;52.130;5.582;2023-12-22T11:14:46;9.27;;;2.45;;
83054;SDS011;72877;52.130;5.582;2023-12-22T11:17:16;18.63;;;2.88;;
83054;SDS011;72877;52.130;5.582;2023-12-22T11:19:42;8.27;;;2.45;;
83054;SDS011;72877;52.130;5.582;2023-12-22T11:22:07;9.10;;;1.98;;
83054;SDS011;72877;52.130;5.582;2023-12-22T11:24:34;8.27;;;2.23;;
83054;SDS011;72877;52.130;5.582;2023-12-22T11:27:00;12.48;;;3.00;;
83054;SDS011;72877;52.130;5.582;2023-12-22T11:29:26;14.23;;;3.55;;
83054;SDS011;72877;52.130;5.582;2023-12-22T11:31:52;10.75;;;2.53;;
83054;SDS011;72877;52.130;5.582;2023-12-22T11:34:19;6.35;;;2.47;;
83054;SDS011;72877;52.130;5.582;2023-12-22T11:36:45;10.57;;;3.47;;
83054;SDS011;72877;52.130;5.582;2023-12-22T11:39:10;8.02;;;2.53;;
83054;SDS011;72877;52.130;5.582;2023-12-22T11:41:35;8.75;;;2.90;;
83054;SDS011;72877;52.130;5.582;2023-12-22T11:44:02;11.50;;;3.17;;
83054;SDS011;72877;52.130;5.582;2023-12-22T11:46:29;16.63;;;2.83;;
83054;SDS011;72877;52.130;5.582;2023-12-22T11:48:55;12.20;;;2.28;;
83054;SDS011;72877;52.130;5.582;2023-12-22T11:51:20;20.13;;;3.40;;
83054;SDS011;72877;52.130;5.582;2023-12-22T11:53:46;10.18;;;2.72;;
83054;SDS011;72877;52.130;5.582;2023-12-22T11:56:11;9.10;;;3.00;;
83054;SDS011;72877;52.130;5.582;2023-12-22T11:58:38;11.10;;;2.33;;
83054;SDS011;72877;52.130;5.582;2023-12-22T12:01:08;13.32;;;3.15;;
83054;SDS011;72877;52.130;5.582;2023-12-22T12:03:36;10.05;;;2.40;;
83054;SDS011;72877;52.130;5.582;2023-12-22T12:06:11;12.38;;;2.50;;
83054;SDS011;72877;52.130;5.582;2023-12-22T12:08:36;11.18;;;3.33;;
83054;SDS011;72877;52.130;5.582;2023-12-22T12:11:01;13.10;;;3.83;;
83054;SDS011;72877;52.130;5.582;2023-12-22T12:13:28;13.32;;;2.53;;
83054;SDS011;72877;52.130;5.582;2023-12-22T12:15:55;7.78;;;2.55;;
83054;SDS011;72877;52.130;5.582;2023-12-22T12:18:22;9.45;;;2.05;;
83054;SDS011;72877;52.130;5.582;2023-12-22T12:20:48;7.75;;;2.40;;
83054;SDS011;72877;52.130;5.582;2023-12-22T12:23:14;8.52;;;2.42;;
83054;SDS011;72877;52.130;5.582;2023-12-22T12:25:40;9.07;;;2.40;;
83054;SDS011;72877;52.130;5.582;2023-12-22T12:28:06;9.15;;;2.15;;
83054;SDS011;72877;52.130;5.582;2023-12-22T12:30:32;12.63;;;2.60;;
83054;SDS011;72877;52.130;5.582;2023-12-22T12:33:07;13.48;;;2.45;;
83054;SDS011;72877;52.130;5.582;2023-12-22T12:35:33;12.70;;;2.88;;
83054;SDS011;72877;52.130;5.582;2023-12-22T12:37:59;11.52;;;1.92;;
83054;SDS011;72877;52.130;5.582;2023-12-22T12:40:24;8.63;;;2.15;;
83054;SDS011;72877;52.130;5.582;2023-12-22T12:42:50;10.15;;;2.13;;
83054;SDS011;72877;52.130;5.582;2023-12-22T12:45:15;10.00;;;2.30;;
83054;SDS011;72877;52.130;5.582;2023-12-22T12:47:40;11.82;;;2.70;;
83054;SDS011;72877;52.130;5.582;2023-12-22T12:50:05;12.37;;;2.40;;
83054;SDS011;72877;52.130;5.582;2023-12-22T12:52:31;13.15;;;3.00;;
83054;SDS011;72877;52.130;5.582;2023-12-22T12:54:56;13.77;;;3.00;;
83054;SDS011;72877;52.130;5.582;2023-12-22T12:57:23;10.73;;;1.90;;
83054;SDS011;72877;52.130;5.582;2023-12-22T12:59:49;12.38;;;2.40;;
83054;SDS011;72877;52.130;5.582;2023-12-22T13:02:15;12.98;;;2.83;;
83054;SDS011;72877;52.130;5.582;2023-12-22T13:04:40;14.38;;;3.05;;
83054;SDS011;72877;52.130;5.582;2023-12-22T13:07:05;9.20;;;2.92;;
83054;SDS011;72877;52.130;5.582;2023-12-22T13:09:31;13.07;;;2.75;;
83054;SDS011;72877;52.130;5.582;2023-12-22T13:11:57;15.38;;;2.85;;
83054;SDS011;72877;52.130;5.582;2023-12-22T13:14:22;11.40;;;2.60;;
83054;SDS011;72877;52.130;5.582;2023-12-22T13:16:50;15.05;;;3.00;;
83054;SDS011;72877;52.130;5.582;2023-12-22T13:19:15;11.73;;;3.17;;
83054;SDS011;72877;52.130;5.582;2023-12-22T13:21:40;15.07;;;2.97;;
83054;SDS011;72877;52.130;5.582;2023-12-22T13:24:13;6.18;;;2.50;;
83054;SDS011;72877;52.130;5.582;2023-12-22T13:26:38;8.57;;;2.33;;
83054;SDS011;72877;52.130;5.582;2023-12-22T13:29:04;8.05;;;2.80;;
83054;SDS011;72877;52.130;5.582;2023-12-22T13:31:30;11.10;;;2.38;;
83054;SDS011;72877;52.130;5.582;2023-12-22T13:33:56;15.43;;;3.17;;
83054;SDS011;72877;52.130;5.582;2023-12-22T13:36:21;17.88;;;3.30;;
83054;SDS011;72877;52.130;5.582;2023-12-22T13:38:46;16.27;;;2.90;;
83054;SDS011;72877;52.130;5.582;2023-12-22T13:41:12;13.15;;;2.88;;
83054;SDS011;72877;52.130;5.582;2023-12-22T13:43:37;9.60;;;2.30;;
83054;SDS011;72877;52.130;5.582;2023-12-22T13:46:03;14.65;;;2.75;;
83054;SDS011;72877;52.130;5.582;2023-12-22T13:48:28;15.10;;;2.28;;
83054;SDS011;72877;52.130;5.582;2023-12-22T13:50:57;9.93;;;2.10;;
83054;SDS011;72877;52.130;5.582;2023-12-22T13:53:23;13.23;;;2.13;;
83054;SDS011;72877;52.130;5.582;2023-12-22T13:55:55;8.35;;;2.58;;
83054;SDS011;72877;52.130;5.582;2023-12-22T13:58:21;5.78;;;1.77;;
83054;SDS011;72877;52.130;5.582;2023-12-22T14:00:46;8.40;;;2.47;;
83054;SDS011;72877;52.130;5.582;2023-12-22T14:03:11;12.52;;;2.05;;
83054;SDS011;72877;52.130;5.582;2023-12-22T14:05:36;11.05;;;2.42;;
83054;SDS011;72877;52.130;5.582;2023-12-22T14:08:05;9.52;;;2.00;;
83054;SDS011;72877;52.130;5.582;2023-12-22T14:10:30;10.27;;;2.00;;
83054;SDS011;72877;52.130;5.582;2023-12-22T14:12:56;10.95;;;3.03;;
83054;SDS011;72877;52.130;5.582;2023-12-22T14:15:21;10.18;;;2.25;;
83054;SDS011;72877;52.130;5.582;2023-12-22T14:17:48;10.63;;;3.05;;
83054;SDS011;72877;52.130;5.582;2023-12-22T14:20:13;13.57;;;3.55;;
83054;SDS011;72877;52.130;5.582;2023-12-22T14:22:39;13.52;;;2.75;;
83054;SDS011;72877;52.130;5.582;2023-12-22T14:25:04;8.55;;;2.53;;
83054;SDS011;72877;52.130;5.582;2023-12-22T14:27:30;14.43;;;2.50;;
83054;SDS011;72877;52.130;5.582;2023-12-22T14:29:55;20.30;;;3.55;;
83054;SDS011;72877;52.130;5.582;2023-12-22T14:32:21;16.08;;;3.50;;